Time;durP1;ratioP1;P1;durP2;ratioP2;P2;SDS_P1;SDS_P2;PMS_P1;PMS_P2;Temp;Humidity;BMP_temperature;BMP_pressure;BME280_temperature;BME280_humidity;BME280_pressure;Samples;Min_cycle;Max_cycle;Signal;HPM_P1;HPM_P2
2022/12/16 00:00:11;;;;;;;;;;;;;;;-144.99;95.02;52578.53;4983835;28;19930;-73
2022/12/16 00:02:37;;;;;;;;;;;;;;;-144.99;94.87;52582.63;4985176;28;20252;-74
2022/12/16 00:05:04;;;;;;;;;;;;;;;-144.99;94.79;52603.00;4986121;28;19929;-73
2022/12/16 00:07:31;;;;;;;;;;;;;;;-144.99;94.74;52590.78;4984384;28;20371;-73
2022/12/16 00:09:57;;;;;;;;;;;;;;;-144.99;94.57;52598.94;5003064;28;19953;-78
2022/12/16 00:12:24;;;;;;;;;;;;;;;-144.99;94.10;52586.69;4989363;28;20000;-74
2022/12/16 00:14:52;;;;;;;;;;;;;;;-144.99;94.11;52631.53;4973923;28;19933;-74
2022/12/16 00:17:18;;;;;;;;;;;;;;;-144.99;93.89;52574.47;4986845;28;19930;-71
2022/12/16 00:19:46;;;;;;;;;;;;;;;-144.99;94.24;52611.16;4986763;28;20199;-74
2022/12/16 00:22:12;;;;;;;;;;;;;;;-144.99;94.26;52639.69;4986054;28;20024;-76
2022/12/16 00:24:39;;;;;;;;;;;;;;;-144.99;94.20;52558.16;4986636;28;19937;-69
2022/12/16 00:27:05;;;;;;;;;;;;;;;-144.99;94.04;52631.53;4986568;28;19937;-75
2022/12/16 00:29:32;;;;;;;;;;;;;;;-144.99;94.10;52615.25;4986057;28;19937;-72
2022/12/16 00:32:01;;;;;;;;;;;;;;;-144.99;94.24;52664.16;4985717;28;19929;-77
2022/12/16 00:34:28;;;;;;;;;;;;;;;-144.99;94.32;52590.78;4986915;28;20385;-72
2022/12/16 00:36:54;;;;;;;;;;;;;;;-144.99;94.15;52598.94;4973623;28;19929;-73
2022/12/16 00:39:21;;;;;;;;;;;;;;;-144.99;94.12;52619.31;4986155;28;19942;-71
2022/12/16 00:41:49;;;;;;;;;;;;;;;-144.99;94.05;52586.69;4985321;28;20103;-72
2022/12/16 00:44:16;;;;;;;;;;;;;;;-144.99;93.97;52631.53;4984770;28;19981;-73
2022/12/16 00:46:43;;;;;;;;;;;;;;;-144.99;93.90;52592.81;4985839;28;19933;-74
2022/12/16 00:49:11;;;;;;;;;;;;;;;-144.99;93.63;52578.53;4986527;28;19933;-72
2022/12/16 00:51:37;;;;;;;;;;;;;;;-144.99;93.51;52613.19;4985663;28;19936;-73
2022/12/16 00:54:04;;;;;;;;;;;;;;;-144.99;93.52;52588.75;4985818;28;19940;-73
2022/12/16 00:56:31;;;;;;;;;;;;;;;-144.99;93.60;52594.84;4985707;28;19930;-73
2022/12/16 00:58:57;;;;;;;;;;;;;;;-144.99;93.22;52578.53;4983993;28;20353;-72
2022/12/16 01:01:24;;;;;;;;;;;;;;;-144.99;93.23;52607.09;4985936;28;19929;-68
2022/12/16 01:03:50;;;;;;;;;;;;;;;-144.99;93.35;52578.53;4985022;28;19926;-72
2022/12/16 01:06:18;;;;;;;;;;;;;;;-144.99;93.26;52603.00;4985507;28;19992;-70
2022/12/16 01:08:47;;;;;;;;;;;;;;;-144.99;93.29;52554.09;4985727;28;19929;-72
2022/12/16 01:11:14;;;;;;;;;;;;;;;-144.99;93.29;52574.47;4985974;28;19926;-72
2022/12/16 01:13:41;;;;;;;;;;;;;;;-144.99;93.27;52570.38;4983409;28;19930;-71
2022/12/16 01:16:08;;;;;;;;;;;;;;;-144.99;93.37;52552.03;4985808;28;19937;-72
2022/12/16 01:18:34;;;;;;;;;;;;;;;-144.99;93.39;52592.81;4985558;28;19942;-72
2022/12/16 01:21:02;;;;;;;;;;;;;;;-144.99;93.49;52582.63;4985747;28;19960;-73
2022/12/16 01:23:30;;;;;;;;;;;;;;;-144.99;93.63;52578.53;4975682;28;19976;-71
2022/12/16 01:25:58;;;;;;;;;;;;;;;-144.99;93.82;52656.00;4985255;28;20243;-71
2022/12/16 01:28:25;;;;;;;;;;;;;;;-144.99;94.43;52541.84;4981540;28;20400;-72
2022/12/16 01:30:55;;;;;;;;;;;;;;;-144.99;94.58;52603.00;4994663;28;19926;-75
2022/12/16 01:33:22;;;;;;;;;;;;;;;-144.99;95.73;52594.84;4997768;28;20334;-76
2022/12/16 01:35:49;;;;;;;;;;;;;;;-144.99;95.98;52566.31;4995194;28;20353;-74
2022/12/16 01:38:16;;;;;;;;;;;;;;;-144.99;96.41;52611.16;4985867;28;19942;-73
2022/12/16 01:40:44;;;;;;;;;;;;;;;-144.99;96.38;52611.16;4985135;28;19937;-76
2022/12/16 01:43:11;;;;;;;;;;;;;;;-144.99;96.52;52590.78;4985323;28;19936;-74
2022/12/16 01:45:38;;;;;;;;;;;;;;;-144.99;96.61;52550.00;4984481;28;19930;-73
2022/12/16 01:48:14;;;;;;;;;;;;;;;-144.99;96.97;52598.94;4996803;28;19926;-72
2022/12/16 01:50:40;;;;;;;;;;;;;;;-144.99;97.43;52592.81;4973811;28;19936;-72
2022/12/16 01:53:07;;;;;;;;;;;;;;;-144.99;97.36;52603.00;4984573;28;19984;-74
2022/12/16 01:55:35;;;;;;;;;;;;;;;-144.99;97.06;52603.00;4984830;28;19936;-74
2022/12/16 01:58:06;;;;;;;;;;;;;;;-144.99;97.41;52570.38;4986682;28;20040;-70
2022/12/16 02:00:32;;;;;;;;;;;;;;;-144.99;98.12;52588.75;4987784;28;19930;-72
2022/12/16 02:03:00;;;;;;;;;;;;;;;-144.99;98.29;52537.78;4988143;28;19932;-74
2022/12/16 02:05:28;;;;;;;;;;;;;;;-144.99;98.24;52578.53;4988807;28;19991;-71
2022/12/16 02:07:56;;;;;;;;;;;;;;;-144.99;98.11;52594.84;4988385;28;20036;-72
2022/12/16 02:10:27;;;;;;;;;;;;;;;-144.99;98.04;52576.50;4988667;28;19926;-72
2022/12/16 02:12:58;;;;;;;;;;;;;;;-144.99;98.25;52594.84;5002963;28;19974;-77
2022/12/16 02:15:31;;;;;;;;;;;;;;;-144.99;98.50;52594.84;4998681;28;19933;-73
2022/12/16 02:18:01;;;;;;;;;;;;;;;-144.99;98.64;52586.69;4988713;28;20463;-72
2022/12/16 02:20:43;;;;;;;;;;;;;;;-144.99;98.44;52578.53;4987983;28;20341;-73
2022/12/16 02:23:28;;;;;;;;;;;;;;;-144.99;98.28;52586.69;4985614;28;19930;-72
2022/12/16 02:26:09;;;;;;;;;;;;;;;-144.99;98.31;52580.59;4988565;28;19948;-73
2022/12/16 02:28:48;;;;;;;;;;;;;;;-144.99;98.26;52533.69;4982299;28;19929;-75
2022/12/16 02:31:21;;;;;;;;;;;;;;;-144.99;98.26;52598.94;4988156;28;19978;-73
2022/12/16 02:33:52;;;;;;;;;;;;;;;-144.99;98.39;52586.69;4988222;28;19933;-73
2022/12/16 02:36:24;;;;;;;;;;;;;;;-144.99;98.49;52594.84;4988688;28;19957;-72
2022/12/16 02:38:56;;;;;;;;;;;;;;;-144.99;98.42;52572.44;4988222;28;20330;-70
2022/12/16 02:41:25;;;;;;;;;;;;;;;-144.99;99.28;52582.63;4988427;28;19961;-71
2022/12/16 02:43:54;;;;;;;;;;;;;;;-144.99;99.17;52590.78;4987361;28;20104;-74
2022/12/16 02:46:23;;;;;;;;;;;;;;;-144.99;99.33;52594.84;4987702;28;19926;-71
2022/12/16 02:48:50;;;;;;;;;;;;;;;-144.99;99.53;52639.69;4988160;28;19971;-72
2022/12/16 02:51:17;;;;;;;;;;;;;;;-144.99;99.35;52570.38;4988129;28;19929;-72
2022/12/16 02:53:46;;;;;;;;;;;;;;;-144.99;99.29;52607.09;4987647;28;19930;-73
2022/12/16 02:56:20;;;;;;;;;;;;;;;-144.99;99.41;52613.19;5002656;28;19955;-76
2022/12/16 02:58:50;;;;;;;;;;;;;;;-144.99;99.44;52570.38;4988913;28;20058;-75
2022/12/16 03:01:20;;;;;;;;;;;;;;;-144.99;99.14;52576.50;4987800;28;19949;-72
2022/12/16 03:03:53;;;;;;;;;;;;;;;-144.99;99.06;52590.78;4988124;28;19933;-76
2022/12/16 03:06:21;;;;;;;;;;;;;;;-144.99;98.97;52566.31;4987442;28;19932;-72
2022/12/16 03:08:50;;;;;;;;;;;;;;;-144.99;98.98;52619.31;4989375;28;19925;-72
2022/12/16 03:11:17;;;;;;;;;;;;;;;-144.99;99.15;52625.44;4988430;28;19995;-71
2022/12/16 03:13:46;;;;;;;;;;;;;;;-144.99;99.19;52545.94;4987511;28;19934;-75
2022/12/16 03:16:14;;;;;;;;;;;;;;;-144.99;98.97;52611.16;4986672;28;19941;-74
2022/12/16 03:18:42;;;;;;;;;;;;;;;-144.99;99.13;52572.44;4988335;28;19938;-73
2022/12/16 03:21:12;;;;;;;;;;;;;;;-144.99;98.96;52662.13;4987631;28;20165;-75
2022/12/16 03:23:43;;;;;;;;;;;;;;;-144.99;99.08;52590.78;4986978;28;20160;-71
2022/12/16 03:26:13;;;;;;;;;;;;;;;-144.99;99.17;52570.38;4987173;28;20453;-75
2022/12/16 03:28:44;;;;;;;;;;;;;;;-144.99;99.21;52615.25;4988059;28;20428;-73
2022/12/16 03:31:16;;;;;;;;;;;;;;;-144.99;99.38;52578.53;4974307;28;19961;-73
2022/12/16 03:33:48;;;;;;;;;;;;;;;-144.99;99.53;52533.69;4986860;28;20019;-73
2022/12/16 03:36:18;;;;;;;;;;;;;;;-144.99;99.93;52539.81;4988086;28;20173;-76
2022/12/16 03:38:47;;;;;;;;;;;;;;;-144.99;99.64;52578.53;4986024;28;19942;-73
2022/12/16 03:41:14;;;;;;;;;;;;;;;-144.99;99.76;52586.69;4986657;28;20051;-73
2022/12/16 03:43:41;;;;;;;;;;;;;;;-144.99;100.00;52578.53;4986312;28;20004;-72
2022/12/16 03:46:08;;;;;;;;;;;;;;;-144.99;99.87;52588.75;4984963;28;19937;-71
2022/12/16 03:48:34;;;;;;;;;;;;;;;-144.99;99.78;52574.47;4987076;28;20421;-72
2022/12/16 03:51:01;;;;;;;;;;;;;;;-144.99;100.00;52574.47;4986633;28;19929;-70
2022/12/16 03:53:29;;;;;;;;;;;;;;;-144.99;100.00;52578.53;4986126;28;19988;-72
2022/12/16 03:55:55;;;;;;;;;;;;;;;-144.99;100.00;52592.81;4986154;28;19932;-73
2022/12/16 03:58:22;;;;;;;;;;;;;;;-144.99;100.00;52611.16;4986835;28;19933;-76
2022/12/16 04:00:49;;;;;;;;;;;;;;;-144.99;100.00;52582.63;4985544;28;19930;-71
2022/12/16 04:03:16;;;;;;;;;;;;;;;-144.99;100.00;52611.16;4986474;28;20027;-71
2022/12/16 04:05:43;;;;;;;;;;;;;;;-144.99;100.00;52566.31;4986244;28;19975;-71
2022/12/16 04:08:09;;;;;;;;;;;;;;;-144.99;100.00;52603.00;4985980;28;19999;-72
2022/12/16 04:24:19;;;;;;;;;;;;;;;-144.99;100.00;52619.31;4988373;28;19955;-74
2022/12/16 04:29:32;;;;;;;;;;;;;;;-144.99;100.00;52635.63;4977467;28;20428;-73
2022/12/16 04:31:59;;;;;;;;;;;;;;;-144.99;100.00;52582.63;4986099;28;19933;-72
2022/12/16 04:34:25;;;;;;;;;;;;;;;-144.99;100.00;52584.66;4983409;28;20392;-72
